sensor_id;sensor_type;location;lat;lon;timestamp;P1;durP1;ratioP1;P2;durP2;ratioP2
9767;SDS011;4923;52.520;13.494;2022-12-18T00:00:44;17.92;;;9.00;;
9767;SDS011;4923;52.520;13.494;2022-12-18T00:03:33;28.25;;;9.30;;
9767;SDS011;4923;52.520;13.494;2022-12-18T00:06:20;28.13;;;9.52;;
9767;SDS011;4923;52.520;13.494;2022-12-18T00:09:08;18.50;;;8.05;;
9767;SDS011;4923;52.520;13.494;2022-12-18T00:11:56;17.63;;;9.32;;
9767;SDS011;4923;52.520;13.494;2022-12-18T00:14:43;19.17;;;8.88;;
9767;SDS011;4923;52.520;13.494;2022-12-18T00:17:30;25.30;;;9.65;;
9767;SDS011;4923;52.520;13.494;2022-12-18T00:20:17;20.98;;;8.10;;
9767;SDS011;4923;52.520;13.494;2022-12-18T00:23:10;19.48;;;8.60;;
9767;SDS011;4923;52.520;13.494;2022-12-18T00:25:58;21.48;;;8.65;;
9767;SDS011;4923;52.520;13.494;2022-12-18T00:28:47;21.20;;;9.00;;
9767;SDS011;4923;52.520;13.494;2022-12-18T00:31:35;22.42;;;9.77;;
9767;SDS011;4923;52.520;13.494;2022-12-18T00:34:23;22.83;;;9.35;;
9767;SDS011;4923;52.520;13.494;2022-12-18T00:37:10;22.17;;;9.27;;
9767;SDS011;4923;52.520;13.494;2022-12-18T00:39:57;22.45;;;10.95;;
9767;SDS011;4923;52.520;13.494;2022-12-18T00:42:44;25.02;;;10.77;;
9767;SDS011;4923;52.520;13.494;2022-12-18T00:45:43;28.30;;;10.45;;
9767;SDS011;4923;52.520;13.494;2022-12-18T00:48:29;23.42;;;10.38;;
9767;SDS011;4923;52.520;13.494;2022-12-18T00:51:16;22.17;;;11.50;;
9767;SDS011;4923;52.520;13.494;2022-12-18T00:54:03;26.65;;;10.13;;
9767;SDS011;4923;52.520;13.494;2022-12-18T00:56:50;24.05;;;9.90;;
9767;SDS011;4923;52.520;13.494;2022-12-18T00:59:37;21.77;;;10.35;;
9767;SDS011;4923;52.520;13.494;2022-12-18T01:02:25;31.75;;;11.50;;
9767;SDS011;4923;52.520;13.494;2022-12-18T01:05:13;29.60;;;10.80;;
9767;SDS011;4923;52.520;13.494;2022-12-18T01:08:00;27.55;;;11.40;;
9767;SDS011;4923;52.520;13.494;2022-12-18T01:10:46;28.08;;;11.15;;
9767;SDS011;4923;52.520;13.494;2022-12-18T01:13:33;24.00;;;11.23;;
9767;SDS011;4923;52.520;13.494;2022-12-18T01:16:20;22.95;;;9.75;;
9767;SDS011;4923;52.520;13.494;2022-12-18T01:19:09;26.50;;;10.68;;
9767;SDS011;4923;52.520;13.494;2022-12-18T01:21:56;25.67;;;10.50;;
9767;SDS011;4923;52.520;13.494;2022-12-18T01:24:43;32.67;;;12.00;;
9767;SDS011;4923;52.520;13.494;2022-12-18T01:27:30;24.60;;;11.95;;
9767;SDS011;4923;52.520;13.494;2022-12-18T01:30:19;27.30;;;11.70;;
9767;SDS011;4923;52.520;13.494;2022-12-18T01:33:06;29.27;;;12.80;;
9767;SDS011;4923;52.520;13.494;2022-12-18T01:35:54;30.48;;;13.00;;
9767;SDS011;4923;52.520;13.494;2022-12-18T01:38:41;29.60;;;12.90;;
9767;SDS011;4923;52.520;13.494;2022-12-18T01:41:28;29.08;;;12.82;;
9767;SDS011;4923;52.520;13.494;2022-12-18T01:47:50;32.78;;;12.52;;
9767;SDS011;4923;52.520;13.494;2022-12-18T01:50:40;42.15;;;14.80;;
9767;SDS011;4923;52.520;13.494;2022-12-18T01:53:30;43.38;;;15.40;;
9767;SDS011;4923;52.520;13.494;2022-12-18T01:56:18;34.83;;;13.75;;
9767;SDS011;4923;52.520;13.494;2022-12-18T01:59:06;36.65;;;15.32;;
9767;SDS011;4923;52.520;13.494;2022-12-18T02:01:57;43.90;;;15.38;;
9767;SDS011;4923;52.520;13.494;2022-12-18T02:04:44;39.17;;;16.05;;
9767;SDS011;4923;52.520;13.494;2022-12-18T02:07:33;34.33;;;14.45;;
9767;SDS011;4923;52.520;13.494;2022-12-18T02:10:29;40.83;;;15.65;;
9767;SDS011;4923;52.520;13.494;2022-12-18T02:13:27;34.28;;;14.52;;
9767;SDS011;4923;52.520;13.494;2022-12-18T02:16:19;37.25;;;15.52;;
9767;SDS011;4923;52.520;13.494;2022-12-18T02:19:15;37.60;;;15.35;;
9767;SDS011;4923;52.520;13.494;2022-12-18T02:22:24;43.00;;;15.13;;
9767;SDS011;4923;52.520;13.494;2022-12-18T02:25:19;38.50;;;14.68;;
9767;SDS011;4923;52.520;13.494;2022-12-18T02:28:16;45.80;;;16.75;;
9767;SDS011;4923;52.520;13.494;2022-12-18T02:31:07;40.65;;;15.05;;
9767;SDS011;4923;52.520;13.494;2022-12-18T02:33:58;35.72;;;14.40;;
9767;SDS011;4923;52.520;13.494;2022-12-18T02:36:48;43.00;;;14.40;;
9767;SDS011;4923;52.520;13.494;2022-12-18T02:39:39;33.17;;;13.32;;
9767;SDS011;4923;52.520;13.494;2022-12-18T02:42:27;30.02;;;12.98;;
9767;SDS011;4923;52.520;13.494;2022-12-18T02:45:16;36.40;;;14.20;;
9767;SDS011;4923;52.520;13.494;2022-12-18T02:48:03;31.48;;;12.15;;
9767;SDS011;4923;52.520;13.494;2022-12-18T02:50:51;32.25;;;12.63;;
9767;SDS011;4923;52.520;13.494;2022-12-18T02:53:45;30.58;;;12.50;;
9767;SDS011;4923;52.520;13.494;2022-12-18T02:56:38;27.52;;;12.63;;
9767;SDS011;4923;52.520;13.494;2022-12-18T02:59:33;36.67;;;12.90;;
9767;SDS011;4923;52.520;13.494;2022-12-18T03:02:26;26.75;;;11.65;;
9767;SDS011;4923;52.520;13.494;2022-12-18T03:05:21;32.75;;;12.50;;
9767;SDS011;4923;52.520;13.494;2022-12-18T03:08:12;28.40;;;12.70;;
9767;SDS011;4923;52.520;13.494;2022-12-18T03:11:05;24.38;;;11.13;;
9767;SDS011;4923;52.520;13.494;2022-12-18T03:13:55;25.83;;;10.80;;
9767;SDS011;4923;52.520;13.494;2022-12-18T03:16:44;27.15;;;11.18;;
9767;SDS011;4923;52.520;13.494;2022-12-18T03:19:35;28.98;;;11.60;;
9767;SDS011;4923;52.520;13.494;2022-12-18T03:22:24;30.17;;;10.70;;
9767;SDS011;4923;52.520;13.494;2022-12-18T03:25:15;24.88;;;10.40;;
9767;SDS011;4923;52.520;13.494;2022-12-18T03:28:04;23.08;;;10.38;;
9767;SDS011;4923;52.520;13.494;2022-12-18T03:30:55;22.02;;;9.70;;
9767;SDS011;4923;52.520;13.494;2022-12-18T03:33:45;23.73;;;10.93;;
9767;SDS011;4923;52.520;13.494;2022-12-18T03:36:38;25.98;;;10.38;;
9767;SDS011;4923;52.520;13.494;2022-12-18T03:39:25;21.95;;;9.98;;
9767;SDS011;4923;52.520;13.494;2022-12-18T03:42:14;23.13;;;11.40;;
9767;SDS011;4923;52.520;13.494;2022-12-18T03:45:08;19.77;;;9.85;;
9767;SDS011;4923;52.520;13.494;2022-12-18T03:47:59;30.40;;;10.82;;
9767;SDS011;4923;52.520;13.494;2022-12-18T03:50:49;23.65;;;10.43;;
9767;SDS011;4923;52.520;13.494;2022-12-18T03:53:45;23.70;;;10.38;;
9767;SDS011;4923;52.520;13.494;2022-12-18T03:56:36;18.27;;;9.15;;
9767;SDS011;4923;52.520;13.494;2022-12-18T03:59:28;19.70;;;8.43;;
9767;SDS011;4923;52.520;13.494;2022-12-18T04:02:16;19.23;;;8.88;;
9767;SDS011;4923;52.520;13.494;2022-12-18T04:05:05;24.70;;;11.68;;
9767;SDS011;4923;52.520;13.494;2022-12-18T04:07:53;17.40;;;8.98;;
9767;SDS011;4923;52.520;13.494;2022-12-18T04:10:43;25.67;;;9.15;;
9767;SDS011;4923;52.520;13.494;2022-12-18T04:13:33;22.75;;;9.90;;
9767;SDS011;4923;52.520;13.494;2022-12-18T04:16:21;16.30;;;8.30;;
9767;SDS011;4923;52.520;13.494;2022-12-18T04:19:08;21.63;;;8.85;;
9767;SDS011;4923;52.520;13.494;2022-12-18T04:21:55;20.63;;;9.57;;
9767;SDS011;4923;52.520;13.494;2022-12-18T04:24:42;22.15;;;9.75;;
9767;SDS011;4923;52.520;13.494;2022-12-18T04:27:30;22.38;;;10.07;;
9767;SDS011;4923;52.520;13.494;2022-12-18T04:30:17;20.48;;;9.00;;
9767;SDS011;4923;52.520;13.494;2022-12-18T04:33:03;19.02;;;9.05;;
9767;SDS011;4923;52.520;13.494;2022-12-18T04:35:54;18.80;;;9.00;;
9767;SDS011;4923;52.520;13.494;2022-12-18T04:38:41;18.52;;;8.70;;
9767;SDS011;4923;52.520;13.494;2022-12-18T04:41:27;18.45;;;8.60;;
9767;SDS011;4923;52.520;13.494;2022-12-18T04:44:15;22.00;;;9.43;;
9767;SDS011;4923;52.520;13.494;2022-12-18T04:47:02;21.55;;;9.15;;
9767;SDS011;4923;52.520;13.494;2022-12-18T04:49:50;22.27;;;9.90;;
9767;SDS011;4923;52.520;13.494;2022-12-18T04:52:36;20.45;;;9.27;;
9767;SDS011;4923;52.520;13.494;2022-12-18T04:55:23;24.05;;;8.90;;
9767;SDS011;4923;52.520;13.494;2022-12-18T04:58:10;19.13;;;9.57;;
9767;SDS011;4923;52.520;13.494;2022-12-18T05:00:58;20.00;;;9.13;;
9767;SDS011;4923;52.520;13.494;2022-12-18T05:03:46;16.38;;;8.20;;
9767;SDS011;4923;52.520;13.494;2022-12-18T05:06:33;19.95;;;9.43;;
9767;SDS011;4923;52.520;13.494;2022-12-18T05:09:20;17.77;;;8.95;;
9767;SDS011;4923;52.520;13.494;2022-12-18T05:12:07;17.70;;;8.52;;
9767;SDS011;4923;52.520;13.494;2022-12-18T05:14:54;30.70;;;10.75;;
9767;SDS011;4923;52.520;13.494;2022-12-18T05:17:42;14.43;;;8.05;;
9767;SDS011;4923;52.520;13.494;2022-12-18T05:20:29;22.35;;;10.43;;
9767;SDS011;4923;52.520;13.494;2022-12-18T05:23:17;24.00;;;9.55;;
9767;SDS011;4923;52.520;13.494;2022-12-18T05:26:05;25.92;;;9.85;;
9767;SDS011;4923;52.520;13.494;2022-12-18T05:28:53;20.67;;;9.20;;
9767;SDS011;4923;52.520;13.494;2022-12-18T05:31:42;23.63;;;8.48;;
9767;SDS011;4923;52.520;13.494;2022-12-18T05:34:31;26.55;;;8.65;;
9767;SDS011;4923;52.520;13.494;2022-12-18T05:37:18;18.73;;;8.82;;
9767;SDS011;4923;52.520;13.494;2022-12-18T05:40:06;28.45;;;11.45;;
9767;SDS011;4923;52.520;13.494;2022-12-18T05:42:54;28.58;;;11.18;;
9767;SDS011;4923;52.520;13.494;2022-12-18T05:45:41;19.88;;;9.02;;
9767;SDS011;4923;52.520;13.494;2022-12-18T05:48:28;27.35;;;9.90;;
9767;SDS011;4923;52.520;13.494;2022-12-18T05:51:17;27.20;;;10.85;;
9767;SDS011;4923;52.520;13.494;2022-12-18T05:54:05;22.27;;;9.05;;
9767;SDS011;4923;52.520;13.494;2022-12-18T05:56:52;28.67;;;10.25;;
9767;SDS011;4923;52.520;13.494;2022-12-18T05:59:39;30.95;;;11.77;;
9767;SDS011;4923;52.520;13.494;2022-12-18T06:02:26;27.17;;;10.18;;
9767;SDS011;4923;52.520;13.494;2022-12-18T06:05:13;27.38;;;11.25;;
9767;SDS011;4923;52.520;13.494;2022-12-18T06:08:01;28.88;;;11.57;;
9767;SDS011;4923;52.520;13.494;2022-12-18T06:10:51;29.63;;;12.07;;
9767;SDS011;4923;52.520;13.494;2022-12-18T06:13:38;34.88;;;13.20;;
9767;SDS011;4923;52.520;13.494;2022-12-18T06:16:25;32.35;;;11.48;;
9767;SDS011;4923;52.520;13.494;2022-12-18T06:19:13;29.17;;;11.98;;
9767;SDS011;4923;52.520;13.494;2022-12-18T06:22:02;30.25;;;11.90;;
9767;SDS011;4923;52.520;13.494;2022-12-18T06:24:50;27.92;;;11.90;;
9767;SDS011;4923;52.520;13.494;2022-12-18T06:27:37;26.77;;;10.82;;
9767;SDS011;4923;52.520;13.494;2022-12-18T06:30:24;31.23;;;12.95;;
9767;SDS011;4923;52.520;13.494;2022-12-18T06:33:10;21.38;;;9.80;;
9767;SDS011;4923;52.520;13.494;2022-12-18T06:35:59;26.98;;;11.98;;
9767;SDS011;4923;52.520;13.494;2022-12-18T06:38:46;25.85;;;11.50;;
9767;SDS011;4923;52.520;13.494;2022-12-18T06:41:34;29.45;;;11.43;;
9767;SDS011;4923;52.520;13.494;2022-12-18T06:44:21;31.65;;;10.70;;
9767;SDS011;4923;52.520;13.494;2022-12-18T06:47:08;24.85;;;11.45;;
9767;SDS011;4923;52.520;13.494;2022-12-18T06:49:55;26.60;;;11.23;;
9767;SDS011;4923;52.520;13.494;2022-12-18T06:52:42;25.60;;;11.05;;
9767;SDS011;4923;52.520;13.494;2022-12-18T06:55:29;27.88;;;10.18;;
9767;SDS011;4923;52.520;13.494;2022-12-18T06:58:17;27.67;;;10.52;;
9767;SDS011;4923;52.520;13.494;2022-12-18T07:01:05;33.15;;;11.05;;
9767;SDS011;4923;52.520;13.494;2022-12-18T07:03:54;32.15;;;12.55;;
9767;SDS011;4923;52.520;13.494;2022-12-18T07:06:42;24.95;;;10.35;;
9767;SDS011;4923;52.520;13.494;2022-12-18T07:09:29;26.25;;;10.80;;
9767;SDS011;4923;52.520;13.494;2022-12-18T07:12:16;32.83;;;11.18;;
9767;SDS011;4923;52.520;13.494;2022-12-18T07:15:05;24.63;;;9.70;;
9767;SDS011;4923;52.520;13.494;2022-12-18T07:17:53;31.85;;;11.50;;
9767;SDS011;4923;52.520;13.494;2022-12-18T07:20:39;31.30;;;11.75;;
9767;SDS011;4923;52.520;13.494;2022-12-18T07:23:26;27.70;;;10.90;;
9767;SDS011;4923;52.520;13.494;2022-12-18T07:26:14;29.23;;;11.73;;
9767;SDS011;4923;52.520;13.494;2022-12-18T07:29:02;30.73;;;11.48;;
9767;SDS011;4923;52.520;13.494;2022-12-18T07:31:50;32.33;;;11.88;;
9767;SDS011;4923;52.520;13.494;2022-12-18T07:34:37;25.85;;;11.60;;
9767;SDS011;4923;52.520;13.494;2022-12-18T07:37:24;29.13;;;12.32;;
9767;SDS011;4923;52.520;13.494;2022-12-18T07:40:11;23.52;;;11.13;;
9767;SDS011;4923;52.520;13.494;2022-12-18T07:42:58;24.45;;;11.45;;
9767;SDS011;4923;52.520;13.494;2022-12-18T07:45:45;27.40;;;10.85;;
9767;SDS011;4923;52.520;13.494;2022-12-18T07:48:36;25.77;;;11.18;;
9767;SDS011;4923;52.520;13.494;2022-12-18T07:51:23;20.48;;;9.65;;
9767;SDS011;4923;52.520;13.494;2022-12-18T07:54:10;25.27;;;11.15;;
9767;SDS011;4923;52.520;13.494;2022-12-18T07:56:57;26.38;;;9.63;;
9767;SDS011;4923;52.520;13.494;2022-12-18T07:59:44;24.63;;;10.57;;
9767;SDS011;4923;52.520;13.494;2022-12-18T08:02:31;23.35;;;11.20;;
9767;SDS011;4923;52.520;13.494;2022-12-18T08:05:19;22.42;;;10.55;;
9767;SDS011;4923;52.520;13.494;2022-12-18T08:08:06;25.30;;;10.40;;
9767;SDS011;4923;52.520;13.494;2022-12-18T08:10:53;21.60;;;9.40;;
9767;SDS011;4923;52.520;13.494;2022-12-18T08:13:40;25.73;;;9.30;;
9767;SDS011;4923;52.520;13.494;2022-12-18T08:16:27;26.27;;;10.55;;
9767;SDS011;4923;52.520;13.494;2022-12-18T08:19:15;25.10;;;9.90;;
9767;SDS011;4923;52.520;13.494;2022-12-18T08:22:03;22.90;;;9.57;;
9767;SDS011;4923;52.520;13.494;2022-12-18T08:24:50;20.67;;;9.82;;
9767;SDS011;4923;52.520;13.494;2022-12-18T08:27:37;20.40;;;9.07;;
9767;SDS011;4923;52.520;13.494;2022-12-18T08:30:24;22.58;;;9.32;;
9767;SDS011;4923;52.520;13.494;2022-12-18T08:33:11;18.27;;;9.20;;
9767;SDS011;4923;52.520;13.494;2022-12-18T08:35:58;24.90;;;10.15;;
9767;SDS011;4923;52.520;13.494;2022-12-18T08:38:47;17.98;;;9.48;;
9767;SDS011;4923;52.520;13.494;2022-12-18T08:41:34;26.30;;;10.70;;
9767;SDS011;4923;52.520;13.494;2022-12-18T08:44:21;18.90;;;9.27;;
9767;SDS011;4923;52.520;13.494;2022-12-18T08:47:26;19.88;;;9.90;;
9767;SDS011;4923;52.520;13.494;2022-12-18T08:50:13;23.35;;;10.02;;
9767;SDS011;4923;52.520;13.494;2022-12-18T08:53:00;21.58;;;9.98;;
9767;SDS011;4923;52.520;13.494;2022-12-18T08:55:48;20.92;;;10.43;;
9767;SDS011;4923;52.520;13.494;2022-12-18T08:58:35;20.40;;;8.77;;
9767;SDS011;4923;52.520;13.494;2022-12-18T09:01:23;19.85;;;9.55;;
9767;SDS011;4923;52.520;13.494;2022-12-18T09:04:10;19.75;;;8.60;;
9767;SDS011;4923;52.520;13.494;2022-12-18T09:06:57;20.23;;;9.73;;
9767;SDS011;4923;52.520;13.494;2022-12-18T09:09:44;21.25;;;9.50;;
9767;SDS011;4923;52.520;13.494;2022-12-18T09:12:32;25.77;;;10.23;;
9767;SDS011;4923;52.520;13.494;2022-12-18T09:15:19;21.33;;;9.75;;
9767;SDS011;4923;52.520;13.494;2022-12-18T09:18:06;16.92;;;8.95;;
9767;SDS011;4923;52.520;13.494;2022-12-18T09:20:54;24.75;;;10.65;;
9767;SDS011;4923;52.520;13.494;2022-12-18T09:23:41;25.77;;;10.32;;
9767;SDS011;4923;52.520;13.494;2022-12-18T09:26:28;21.00;;;9.18;;
9767;SDS011;4923;52.520;13.494;2022-12-18T09:29:16;23.95;;;10.55;;
9767;SDS011;4923;52.520;13.494;2022-12-18T09:32:04;21.75;;;10.95;;
9767;SDS011;4923;52.520;13.494;2022-12-18T09:34:51;15.38;;;8.73;;
9767;SDS011;4923;52.520;13.494;2022-12-18T09:37:38;18.52;;;9.15;;
9767;SDS011;4923;52.520;13.494;2022-12-18T09:40:28;20.17;;;9.18;;
9767;SDS011;4923;52.520;13.494;2022-12-18T09:43:22;19.50;;;8.88;;
9767;SDS011;4923;52.520;13.494;2022-12-18T09:46:17;19.92;;;8.98;;
9767;SDS011;4923;52.520;13.494;2022-12-18T09:49:13;23.38;;;9.35;;
9767;SDS011;4923;52.520;13.494;2022-12-18T09:52:04;20.10;;;9.93;;
9767;SDS011;4923;52.520;13.494;2022-12-18T09:54:58;28.55;;;11.23;;
9767;SDS011;4923;52.520;13.494;2022-12-18T09:57:53;25.48;;;11.13;;
9767;SDS011;4923;52.520;13.494;2022-12-18T10:00:43;25.15;;;10.93;;
9767;SDS011;4923;52.520;13.494;2022-12-18T10:03:31;24.48;;;11.23;;
9767;SDS011;4923;52.520;13.494;2022-12-18T10:06:19;27.25;;;10.70;;
9767;SDS011;4923;52.520;13.494;2022-12-18T10:09:12;27.98;;;11.30;;
9767;SDS011;4923;52.520;13.494;2022-12-18T10:12:08;20.02;;;10.25;;
9767;SDS011;4923;52.520;13.494;2022-12-18T10:15:02;22.55;;;11.10;;
9767;SDS011;4923;52.520;13.494;2022-12-18T10:17:54;21.80;;;10.98;;
9767;SDS011;4923;52.520;13.494;2022-12-18T10:20:46;29.45;;;11.73;;
9767;SDS011;4923;52.520;13.494;2022-12-18T10:23:37;24.50;;;11.02;;
9767;SDS011;4923;52.520;13.494;2022-12-18T10:26:32;23.75;;;11.68;;
9767;SDS011;4923;52.520;13.494;2022-12-18T10:29:19;25.27;;;10.60;;
9767;SDS011;4923;52.520;13.494;2022-12-18T10:32:06;29.27;;;12.55;;
9767;SDS011;4923;52.520;13.494;2022-12-18T10:34:55;27.35;;;11.40;;
9767;SDS011;4923;52.520;13.494;2022-12-18T10:40:48;29.38;;;11.13;;
9767;SDS011;4923;52.520;13.494;2022-12-18T10:43:37;22.60;;;10.65;;
9767;SDS011;4923;52.520;13.494;2022-12-18T10:46:26;25.17;;;10.25;;
9767;SDS011;4923;52.520;13.494;2022-12-18T10:49:19;24.75;;;10.52;;
9767;SDS011;4923;52.520;13.494;2022-12-18T10:52:12;24.52;;;9.52;;
9767;SDS011;4923;52.520;13.494;2022-12-18T10:55:03;26.98;;;11.10;;
9767;SDS011;4923;52.520;13.494;2022-12-18T10:57:52;22.65;;;10.43;;
9767;SDS011;4923;52.520;13.494;2022-12-18T11:00:39;26.33;;;10.18;;
9767;SDS011;4923;52.520;13.494;2022-12-18T11:03:29;22.55;;;9.48;;
9767;SDS011;4923;52.520;13.494;2022-12-18T11:06:21;23.95;;;10.00;;
9767;SDS011;4923;52.520;13.494;2022-12-18T11:09:18;18.33;;;9.40;;
9767;SDS011;4923;52.520;13.494;2022-12-18T11:12:17;19.20;;;8.98;;
9767;SDS011;4923;52.520;13.494;2022-12-18T11:15:13;18.30;;;8.73;;
9767;SDS011;4923;52.520;13.494;2022-12-18T11:18:03;19.80;;;8.98;;
9767;SDS011;4923;52.520;13.494;2022-12-18T11:20:51;17.60;;;8.80;;
9767;SDS011;4923;52.520;13.494;2022-12-18T11:23:44;15.18;;;8.00;;
9767;SDS011;4923;52.520;13.494;2022-12-18T11:26:34;20.08;;;9.70;;
9767;SDS011;4923;52.520;13.494;2022-12-18T11:29:31;18.05;;;8.05;;
9767;SDS011;4923;52.520;13.494;2022-12-18T11:32:27;17.20;;;9.02;;
9767;SDS011;4923;52.520;13.494;2022-12-18T11:35:18;15.27;;;8.20;;
9767;SDS011;4923;52.520;13.494;2022-12-18T11:38:12;19.13;;;9.82;;
9767;SDS011;4923;52.520;13.494;2022-12-18T11:41:12;22.42;;;8.50;;
9767;SDS011;4923;52.520;13.494;2022-12-18T11:44:07;20.33;;;10.05;;
9767;SDS011;4923;52.520;13.494;2022-12-18T11:46:59;18.33;;;9.57;;
9767;SDS011;4923;52.520;13.494;2022-12-18T11:49:50;16.10;;;8.45;;
9767;SDS011;4923;52.520;13.494;2022-12-18T11:52:39;14.38;;;7.07;;
9767;SDS011;4923;52.520;13.494;2022-12-18T11:55:30;20.35;;;9.40;;
9767;SDS011;4923;52.520;13.494;2022-12-18T11:58:30;18.67;;;8.10;;
9767;SDS011;4923;52.520;13.494;2022-12-18T12:01:32;16.52;;;7.82;;
9767;SDS011;4923;52.520;13.494;2022-12-18T12:04:34;24.60;;;8.13;;
9767;SDS011;4923;52.520;13.494;2022-12-18T12:07:37;17.88;;;9.13;;
9767;SDS011;4923;52.520;13.494;2022-12-18T12:10:34;17.40;;;7.78;;
9767;SDS011;4923;52.520;13.494;2022-12-18T12:13:32;17.17;;;9.00;;
9767;SDS011;4923;52.520;13.494;2022-12-18T12:16:28;21.15;;;8.68;;
9767;SDS011;4923;52.520;13.494;2022-12-18T12:19:23;21.83;;;9.32;;
9767;SDS011;4923;52.520;13.494;2022-12-18T12:22:22;17.25;;;7.65;;
9767;SDS011;4923;52.520;13.494;2022-12-18T12:25:21;17.30;;;7.68;;
9767;SDS011;4923;52.520;13.494;2022-12-18T12:28:24;12.27;;;6.15;;
9767;SDS011;4923;52.520;13.494;2022-12-18T12:31:21;16.50;;;7.75;;
9767;SDS011;4923;52.520;13.494;2022-12-18T12:34:16;13.50;;;7.70;;
9767;SDS011;4923;52.520;13.494;2022-12-18T12:37:12;16.10;;;9.05;;
9767;SDS011;4923;52.520;13.494;2022-12-18T12:40:07;16.05;;;8.50;;
9767;SDS011;4923;52.520;13.494;2022-12-18T12:43:02;13.68;;;7.30;;
9767;SDS011;4923;52.520;13.494;2022-12-18T12:46:03;13.00;;;7.32;;
9767;SDS011;4923;52.520;13.494;2022-12-18T12:48:52;13.65;;;7.10;;
9767;SDS011;4923;52.520;13.494;2022-12-18T12:51:41;14.43;;;7.85;;
9767;SDS011;4923;52.520;13.494;2022-12-18T12:54:31;16.73;;;8.80;;
9767;SDS011;4923;52.520;13.494;2022-12-18T12:57:21;17.77;;;8.65;;
9767;SDS011;4923;52.520;13.494;2022-12-18T13:00:14;16.73;;;8.55;;
9767;SDS011;4923;52.520;13.494;2022-12-18T13:03:06;16.05;;;8.82;;
9767;SDS011;4923;52.520;13.494;2022-12-18T13:06:02;12.80;;;7.63;;
9767;SDS011;4923;52.520;13.494;2022-12-18T13:08:56;15.82;;;8.18;;
9767;SDS011;4923;52.520;13.494;2022-12-18T13:11:44;14.48;;;8.10;;
9767;SDS011;4923;52.520;13.494;2022-12-18T13:14:50;19.23;;;7.63;;
9767;SDS011;4923;52.520;13.494;2022-12-18T13:17:38;19.65;;;8.35;;
9767;SDS011;4923;52.520;13.494;2022-12-18T13:20:25;11.65;;;6.90;;
9767;SDS011;4923;52.520;13.494;2022-12-18T13:26:29;18.40;;;8.02;;
9767;SDS011;4923;52.520;13.494;2022-12-18T13:32:26;17.90;;;8.68;;
9767;SDS011;4923;52.520;13.494;2022-12-18T13:38:32;14.75;;;8.93;;
9767;SDS011;4923;52.520;13.494;2022-12-18T13:41:24;16.88;;;8.35;;
9767;SDS011;4923;52.520;13.494;2022-12-18T13:44:20;14.15;;;8.27;;
9767;SDS011;4923;52.520;13.494;2022-12-18T13:47:25;20.38;;;9.05;;
9767;SDS011;4923;52.520;13.494;2022-12-18T13:50:20;12.98;;;7.88;;
9767;SDS011;4923;52.520;13.494;2022-12-18T13:53:15;16.00;;;8.63;;
9767;SDS011;4923;52.520;13.494;2022-12-18T13:56:06;14.98;;;7.85;;
9767;SDS011;4923;52.520;13.494;2022-12-18T13:59:03;14.05;;;8.82;;
9767;SDS011;4923;52.520;13.494;2022-12-18T14:01:56;16.90;;;8.85;;
9767;SDS011;4923;52.520;13.494;2022-12-18T14:04:45;16.58;;;9.55;;
9767;SDS011;4923;52.520;13.494;2022-12-18T14:07:32;19.17;;;10.73;;
9767;SDS011;4923;52.520;13.494;2022-12-18T14:10:23;19.00;;;9.38;;
9767;SDS011;4923;52.520;13.494;2022-12-18T14:13:10;19.95;;;10.43;;
9767;SDS011;4923;52.520;13.494;2022-12-18T14:16:03;20.35;;;9.40;;
9767;SDS011;4923;52.520;13.494;2022-12-18T14:18:52;21.48;;;11.23;;
9767;SDS011;4923;52.520;13.494;2022-12-18T14:21:40;14.70;;;8.60;;
9767;SDS011;4923;52.520;13.494;2022-12-18T14:24:32;42.47;;;18.52;;
9767;SDS011;4923;52.520;13.494;2022-12-18T14:27:22;22.83;;;9.80;;
9767;SDS011;4923;52.520;13.494;2022-12-18T14:33:18;17.48;;;9.20;;
9767;SDS011;4923;52.520;13.494;2022-12-18T14:36:13;14.02;;;8.48;;
9767;SDS011;4923;52.520;13.494;2022-12-18T14:39:02;16.80;;;8.98;;
9767;SDS011;4923;52.520;13.494;2022-12-18T14:41:49;18.92;;;9.45;;
9767;SDS011;4923;52.520;13.494;2022-12-18T14:44:37;16.50;;;9.02;;
9767;SDS011;4923;52.520;13.494;2022-12-18T14:47:24;16.90;;;10.95;;
9767;SDS011;4923;52.520;13.494;2022-12-18T14:50:12;18.23;;;9.75;;
9767;SDS011;4923;52.520;13.494;2022-12-18T14:53:00;20.52;;;9.52;;
9767;SDS011;4923;52.520;13.494;2022-12-18T14:55:47;15.93;;;9.93;;
9767;SDS011;4923;52.520;13.494;2022-12-18T14:58:34;13.95;;;8.50;;
9767;SDS011;4923;52.520;13.494;2022-12-18T15:01:24;22.50;;;10.68;;
9767;SDS011;4923;52.520;13.494;2022-12-18T15:04:23;16.27;;;9.98;;
9767;SDS011;4923;52.520;13.494;2022-12-18T15:07:13;18.55;;;9.18;;
9767;SDS011;4923;52.520;13.494;2022-12-18T15:10:03;17.15;;;11.35;;
9767;SDS011;4923;52.520;13.494;2022-12-18T15:13:07;18.20;;;8.73;;
9767;SDS011;4923;52.520;13.494;2022-12-18T15:15:55;13.77;;;8.48;;
9767;SDS011;4923;52.520;13.494;2022-12-18T15:18:46;14.00;;;8.13;;
9767;SDS011;4923;52.520;13.494;2022-12-18T15:21:33;14.73;;;8.25;;
9767;SDS011;4923;52.520;13.494;2022-12-18T15:24:20;13.80;;;9.00;;
9767;SDS011;4923;52.520;13.494;2022-12-18T15:27:20;23.08;;;11.18;;
9767;SDS011;4923;52.520;13.494;2022-12-18T15:30:16;14.00;;;9.23;;
9767;SDS011;4923;52.520;13.494;2022-12-18T15:33:17;20.88;;;10.98;;
9767;SDS011;4923;52.520;13.494;2022-12-18T15:36:12;14.70;;;9.18;;
9767;SDS011;4923;52.520;13.494;2022-12-18T15:39:01;14.68;;;10.15;;
9767;SDS011;4923;52.520;13.494;2022-12-18T15:41:48;18.20;;;10.55;;
9767;SDS011;4923;52.520;13.494;2022-12-18T15:44:52;13.20;;;8.32;;
9767;SDS011;4923;52.520;13.494;2022-12-18T15:47:39;18.75;;;10.48;;
9767;SDS011;4923;52.520;13.494;2022-12-18T15:50:27;24.15;;;9.68;;
9767;SDS011;4923;52.520;13.494;2022-12-18T15:53:16;13.85;;;9.27;;
9767;SDS011;4923;52.520;13.494;2022-12-18T15:56:04;21.15;;;11.73;;
9767;SDS011;4923;52.520;13.494;2022-12-18T15:59:13;16.10;;;10.77;;
9767;SDS011;4923;52.520;13.494;2022-12-18T16:02:01;19.85;;;10.40;;
9767;SDS011;4923;52.520;13.494;2022-12-18T16:04:48;20.65;;;10.85;;
9767;SDS011;4923;52.520;13.494;2022-12-18T16:07:35;21.33;;;11.73;;
9767;SDS011;4923;52.520;13.494;2022-12-18T16:10:24;18.75;;;11.32;;
9767;SDS011;4923;52.520;13.494;2022-12-18T16:13:12;24.00;;;12.38;;
9767;SDS011;4923;52.520;13.494;2022-12-18T16:16:05;19.20;;;10.23;;
9767;SDS011;4923;52.520;13.494;2022-12-18T16:18:54;22.80;;;10.52;;
9767;SDS011;4923;52.520;13.494;2022-12-18T16:21:41;19.92;;;10.25;;
9767;SDS011;4923;52.520;13.494;2022-12-18T16:24:29;19.27;;;11.00;;
9767;SDS011;4923;52.520;13.494;2022-12-18T16:27:18;15.98;;;8.93;;
9767;SDS011;4923;52.520;13.494;2022-12-18T16:30:06;15.05;;;8.35;;
9767;SDS011;4923;52.520;13.494;2022-12-18T16:32:58;12.60;;;8.48;;
9767;SDS011;4923;52.520;13.494;2022-12-18T16:35:50;15.85;;;8.98;;
9767;SDS011;4923;52.520;13.494;2022-12-18T16:38:37;14.93;;;8.50;;
9767;SDS011;4923;52.520;13.494;2022-12-18T16:41:24;13.63;;;8.65;;
9767;SDS011;4923;52.520;13.494;2022-12-18T16:44:18;16.52;;;8.88;;
9767;SDS011;4923;52.520;13.494;2022-12-18T16:47:06;13.98;;;8.18;;
9767;SDS011;4923;52.520;13.494;2022-12-18T16:49:52;14.38;;;7.97;;
9767;SDS011;4923;52.520;13.494;2022-12-18T16:52:39;15.48;;;8.50;;
9767;SDS011;4923;52.520;13.494;2022-12-18T16:55:26;11.43;;;7.78;;
9767;SDS011;4923;52.520;13.494;2022-12-18T16:58:14;16.77;;;8.82;;
9767;SDS011;4923;52.520;13.494;2022-12-18T17:01:03;16.98;;;9.77;;
9767;SDS011;4923;52.520;13.494;2022-12-18T17:03:54;17.15;;;10.27;;
9767;SDS011;4923;52.520;13.494;2022-12-18T17:06:42;17.60;;;9.15;;
9767;SDS011;4923;52.520;13.494;2022-12-18T17:09:36;14.70;;;8.18;;
9767;SDS011;4923;52.520;13.494;2022-12-18T17:12:23;13.52;;;9.27;;
9767;SDS011;4923;52.520;13.494;2022-12-18T17:15:11;16.38;;;9.10;;